Time;durP1;ratioP1;P1;durP2;ratioP2;P2;SDS_P1;SDS_P2;PMS_P1;PMS_P2;Temp;Humidity;BMP_temperature;BMP_pressure;BME280_temperature;BME280_humidity;BME280_pressure;Samples;Min_cycle;Max_cycle;Signal;HPM_P1;HPM_P2
2021/10/27 00:00:39;;;;;;;;;;;;;;;;;;5074662;28;19925;-70
2021/10/27 00:03:06;;;;;;;;;;;;;;;;;;5076904;28;19932;-71
2021/10/27 00:05:33;;;;;;;;;;;;;;;;;;5081280;28;20404;-70
2021/10/27 00:08:00;;;;;;;;;;;;;;;;;;5095217;28;20299;-73
2021/10/27 00:10:27;;;;;;;;;;;;;;;;;;5098242;28;19927;-72
2021/10/27 00:12:54;;;;;;;;;;;;;;;;;;5091117;28;20449;-71
2021/10/27 00:15:21;;;;;;;;;;;;;;;;;;5089669;28;19928;-71
2021/10/27 00:17:48;;;;;;;;;;;;;;;;;;5098162;28;20331;-71
2021/10/27 00:20:15;;;;;;;;;;;;;;;;;;5088321;28;19924;-71
2021/10/27 00:22:42;;;;;;;;;;;;;;;;;;5087932;28;19931;-71
2021/10/27 00:25:09;;;;;;;;;;;;;;;;;;5087553;28;19924;-71
2021/10/27 00:27:36;;;;;;;;;;;;;;;;;;5093737;28;19931;-72
2021/10/27 00:30:03;;;;;;;;;;;;;;;;;;5084622;28;19924;-70
2021/10/27 00:32:30;;;;;;;;;;;;;;;;;;5094787;28;19934;-70
2021/10/27 00:34:57;;;;;;;;;;;;;;;;;;5094014;28;20046;-72
2021/10/27 00:37:24;;;;;;;;;;;;;;;;;;5088249;28;19930;-73
2021/10/27 00:39:51;;;;;;;;;;;;;;;;;;5086496;28;20427;-71
2021/10/27 00:42:18;;;;;;;;;;;;;;;;;;5093183;28;19930;-71
2021/10/27 00:44:45;;;;;;;;;;;;;;;;;;5090836;28;19924;-70
2021/10/27 00:47:12;;;;;;;;;;;;;;;;;;5086237;28;19924;-72
2021/10/27 00:49:39;;;;;;;;;;;;;;;;;;5078721;28;20304;-71
2021/10/27 00:52:07;;;;;;;;;;;;;;;;;;5086366;28;19925;-70
2021/10/27 00:54:34;;;;;;;;;;;;;;;;;;5091078;28;19971;-72
2021/10/27 00:57:02;;;;;;;;;;;;;;;;;;5090482;28;20015;-72
2021/10/27 00:59:29;;;;;;;;;;;;;;;;;;5086278;28;20360;-72
2021/10/27 01:01:56;;;;;;;;;;;;;;;;;;5087550;28;19930;-70
2021/10/27 01:04:23;;;;;;;;;;;;;;;;;;5086195;28;20445;-70
2021/10/27 01:06:50;;;;;;;;;;;;;;;;;;5079647;28;19924;-70
2021/10/27 01:09:17;;;;;;;;;;;;;;;;;;5078943;28;19935;-72
2021/10/27 01:11:44;;;;;;;;;;;;;;;;;;5077249;28;19931;-72
2021/10/27 01:14:11;;;;;;;;;;;;;;;;;;5088004;28;19960;-71
2021/10/27 01:16:38;;;;;;;;;;;;;;;;;;5090223;28;19928;-72
2021/10/27 01:19:05;;;;;;;;;;;;;;;;;;5084243;28;19924;-74
2021/10/27 01:21:32;;;;;;;;;;;;;;;;;;5084120;28;19979;-72
2021/10/27 01:23:59;;;;;;;;;;;;;;;;;;5089688;28;19933;-72
2021/10/27 01:26:26;;;;;;;;;;;;;;;;;;5088936;28;20384;-72
2021/10/27 01:28:53;;;;;;;;;;;;;;;;;;5084433;28;19930;-71
2021/10/27 01:31:20;;;;;;;;;;;;;;;;;;5078180;28;19935;-70
2021/10/27 01:33:47;;;;;;;;;;;;;;;;;;5087803;28;19932;-73
2021/10/27 01:36:14;;;;;;;;;;;;;;;;;;5087356;28;19971;-71
2021/10/27 01:38:41;;;;;;;;;;;;;;;;;;5090223;28;20302;-71
2021/10/27 01:41:08;;;;;;;;;;;;;;;;;;5070321;28;19924;-72
2021/10/27 01:43:35;;;;;;;;;;;;;;;;;;5074439;28;19931;-71
2021/10/27 01:46:02;;;;;;;;;;;;;;;;;;5076609;28;19928;-70
2021/10/27 01:48:29;;;;;;;;;;;;;;;;;;5089454;28;20304;-72
2021/10/27 01:50:56;;;;;;;;;;;;;;;;;;5083469;28;19938;-69
2021/10/27 01:53:23;;;;;;;;;;;;;;;;;;5086630;28;19931;-70
2021/10/27 01:55:50;;;;;;;;;;;;;;;;;;5086003;28;19925;-70
2021/10/27 01:58:17;;;;;;;;;;;;;;;;;;5077199;28;19954;-70
2021/10/27 02:00:44;;;;;;;;;;;;;;;;;;5082017;28;19924;-71
2021/10/27 02:03:11;;;;;;;;;;;;;;;;;;5090840;28;19938;-70
2021/10/27 02:05:38;;;;;;;;;;;;;;;;;;5079076;28;19924;-70
2021/10/27 02:08:05;;;;;;;;;;;;;;;;;;5086178;28;19925;-71
2021/10/27 02:10:32;;;;;;;;;;;;;;;;;;5085708;28;19927;-71
2021/10/27 02:12:59;;;;;;;;;;;;;;;;;;5090874;28;19928;-70
2021/10/27 02:15:26;;;;;;;;;;;;;;;;;;5087172;28;20411;-71
2021/10/27 02:17:54;;;;;;;;;;;;;;;;;;5086616;28;19931;-69
2021/10/27 02:20:21;;;;;;;;;;;;;;;;;;5072171;28;19928;-72
2021/10/27 02:22:48;;;;;;;;;;;;;;;;;;5081139;28;20284;-70
2021/10/27 02:25:15;;;;;;;;;;;;;;;;;;5082347;28;20363;-70
2021/10/27 02:27:42;;;;;;;;;;;;;;;;;;5088018;28;20336;-70
2021/10/27 02:30:09;;;;;;;;;;;;;;;;;;5087201;28;19924;-71
2021/10/27 02:32:36;;;;;;;;;;;;;;;;;;5069159;28;19924;-70
2021/10/27 02:35:02;;;;;;;;;;;;;;;;;;5071734;28;19925;-70
2021/10/27 02:37:30;;;;;;;;;;;;;;;;;;5084390;28;19924;-70
2021/10/27 02:39:56;;;;;;;;;;;;;;;;;;5089669;28;20137;-70
2021/10/27 02:42:23;;;;;;;;;;;;;;;;;;5078517;28;19932;-69
2021/10/27 02:44:50;;;;;;;;;;;;;;;;;;5080306;28;19931;-70
2021/10/27 02:47:17;;;;;;;;;;;;;;;;;;5085381;28;20026;-70
2021/10/27 02:49:44;;;;;;;;;;;;;;;;;;5082239;28;19931;-70
2021/10/27 02:52:11;;;;;;;;;;;;;;;;;;5083389;28;19932;-71
2021/10/27 02:54:38;;;;;;;;;;;;;;;;;;5089735;28;19947;-70
2021/10/27 02:57:05;;;;;;;;;;;;;;;;;;5086174;28;20311;-70
2021/10/27 02:59:32;;;;;;;;;;;;;;;;;;5087164;28;19935;-70
2021/10/27 03:02:00;;;;;;;;;;;;;;;;;;5084125;28;19931;-70
2021/10/27 03:04:27;;;;;;;;;;;;;;;;;;5088009;28;19924;-70
2021/10/27 03:06:54;;;;;;;;;;;;;;;;;;5092312;28;19924;-72
2021/10/27 03:09:21;;;;;;;;;;;;;;;;;;5085330;28;20406;-70
2021/10/27 03:11:47;;;;;;;;;;;;;;;;;;5090503;28;19928;-71
2021/10/27 03:14:15;;;;;;;;;;;;;;;;;;5091287;28;19924;-71
2021/10/27 03:16:42;;;;;;;;;;;;;;;;;;5093243;28;20292;-71
2021/10/27 03:19:09;;;;;;;;;;;;;;;;;;5080649;28;19924;-71
2021/10/27 03:21:36;;;;;;;;;;;;;;;;;;5085313;28;19925;-72
2021/10/27 03:24:03;;;;;;;;;;;;;;;;;;5088000;28;19931;-71
2021/10/27 03:26:30;;;;;;;;;;;;;;;;;;5081088;28;20418;-71
2021/10/27 03:28:57;;;;;;;;;;;;;;;;;;5088170;28;20007;-72
2021/10/27 03:31:24;;;;;;;;;;;;;;;;;;5084266;28;20468;-71
2021/10/27 03:33:51;;;;;;;;;;;;;;;;;;5088547;28;19979;-71
2021/10/27 03:36:19;;;;;;;;;;;;;;;;;;5091040;28;19928;-71
2021/10/27 03:38:46;;;;;;;;;;;;;;;;;;5087258;28;19924;-72
2021/10/27 03:41:15;;;;;;;;;;;;;;;;;;5084074;28;19924;-70
2021/10/27 03:43:42;;;;;;;;;;;;;;;;;;5087437;22;19928;-58
2021/10/27 03:46:09;;;;;;;;;;;;;;;;;;5043764;28;19976;-58
2021/10/27 03:48:37;;;;;;;;;;;;;;;;;;5045920;28;19925;-58
2021/10/27 03:51:04;;;;;;;;;;;;;;;;;;5044919;28;19925;-58
2021/10/27 03:53:31;;;;;;;;;;;;;;;;;;5048060;28;19924;-58
2021/10/27 03:55:57;;;;;;;;;;;;;;;;;;5067394;28;19931;-59
2021/10/27 03:58:25;;;;;;;;;;;;;;;;;;5068407;28;19931;-58
2021/10/27 04:00:52;;;;;;;;;;;;;;;;;;5066982;28;19924;-58
2021/10/27 04:03:19;;;;;;;;;;;;;;;;;;5067235;28;19940;-59
2021/10/27 04:05:46;;;;;;;;;;;;;;;;;;5069227;28;20003;-58
2021/10/27 04:08:13;;;;;;;;;;;;;;;;;;5068386;28;19925;-58
2021/10/27 04:10:40;;;;;;;;;;;;;;;;;;5066930;28;19924;-59
2021/10/27 04:13:07;;;;;;;;;;;;;;;;;;5068679;28;19924;-58
2021/10/27 04:15:34;;;;;;;;;;;;;;;;;;5067188;28;19925;-57
2021/10/27 04:18:02;;;;;;;;;;;;;;;;;;5061965;28;19935;-58
2021/10/27 04:20:29;;;;;;;;;;;;;;;;;;5062536;28;19931;-58
2021/10/27 04:22:56;;;;;;;;;;;;;;;;;;5065998;28;20295;-57
2021/10/27 04:25:23;;;;;;;;;;;;;;;;;;5068783;28;19924;-58
2021/10/27 04:27:50;;;;;;;;;;;;;;;;;;5066172;28;19928;-57
2021/10/27 04:30:17;;;;;;;;;;;;;;;;;;5067176;28;19936;-58
2021/10/27 04:32:44;;;;;;;;;;;;;;;;;;5068327;28;20385;-58
2021/10/27 04:35:11;;;;;;;;;;;;;;;;;;5068965;28;19932;-57
2021/10/27 04:37:40;;;;;;;;;;;;;;;;;;5063495;28;20012;-58
2021/10/27 04:40:07;;;;;;;;;;;;;;;;;;5065190;28;19925;-53
2021/10/27 04:42:34;;;;;;;;;;;;;;;;;;5069435;28;19925;-58
2021/10/27 04:45:01;;;;;;;;;;;;;;;;;;5059999;28;19935;-59
2021/10/27 04:47:28;;;;;;;;;;;;;;;;;;5066086;28;19928;-56
2021/10/27 04:49:55;;;;;;;;;;;;;;;;;;5064691;28;20388;-57
2021/10/27 04:52:22;;;;;;;;;;;;;;;;;;5068812;28;19924;-57
2021/10/27 04:54:48;;;;;;;;;;;;;;;;;;5060821;28;19936;-58
2021/10/27 04:57:15;;;;;;;;;;;;;;;;;;5059953;28;19925;-57
2021/10/27 04:59:43;;;;;;;;;;;;;;;;;;5065465;28;19932;-58
2021/10/27 05:02:10;;;;;;;;;;;;;;;;;;5063783;28;20395;-55
2021/10/27 05:04:37;;;;;;;;;;;;;;;;;;5062565;28;19928;-58
2021/10/27 05:07:04;;;;;;;;;;;;;;;;;;5062244;28;19925;-57
2021/10/27 05:09:31;;;;;;;;;;;;;;;;;;5063633;28;21595;-57
2021/10/27 05:11:58;;;;;;;;;;;;;;;;;;5059150;28;19950;-58
2021/10/27 05:14:25;;;;;;;;;;;;;;;;;;5064824;28;19929;-59
2021/10/27 05:16:52;;;;;;;;;;;;;;;;;;5060751;28;19934;-57
2021/10/27 05:19:19;;;;;;;;;;;;;;;;;;5063117;28;19928;-59
2021/10/27 05:21:47;;;;;;;;;;;;;;;;;;5063421;28;19925;-57
2021/10/27 05:24:14;;;;;;;;;;;;;;;;;;5062778;28;19932;-58
2021/10/27 05:26:41;;;;;;;;;;;;;;;;;;5060922;28;20376;-58
2021/10/27 05:29:08;;;;;;;;;;;;;;;;;;5061516;28;19931;-58
2021/10/27 05:31:35;;;;;;;;;;;;;;;;;;5064213;28;19935;-58
2021/10/27 05:34:02;;;;;;;;;;;;;;;;;;5064078;28;19924;-58
2021/10/27 05:36:31;;;;;;;;;;;;;;;;;;5050820;28;19940;-56
2021/10/27 05:38:58;;;;;;;;;;;;;;;;;;5047911;28;20037;-57
2021/10/27 05:41:25;;;;;;;;;;;;;;;;;;5051858;28;19928;-56
2021/10/27 05:43:52;;;;;;;;;;;;;;;;;;5061823;28;19928;-58
2021/10/27 05:46:20;;;;;;;;;;;;;;;;;;5056283;28;19939;-58
2021/10/27 05:48:55;;;;;;;;;;;;;;;;;;5046773;28;21382;-58
2021/10/27 05:51:34;;;;;;;;;;;;;;;;;;5053181;28;19943;-58
2021/10/27 05:56:46;;;;;;;;;;;;;;;;;;5054068;28;19927;-59
2021/10/27 05:59:13;;;;;;;;;;;;;;;;;;5057955;28;19924;-59
2021/10/27 06:01:40;;;;;;;;;;;;;;;;;;5052078;28;19932;-59
2021/10/27 06:04:07;;;;;;;;;;;;;;;;;;5054014;28;19940;-59
2021/10/27 06:06:33;;;;;;;;;;;;;;;;;;5056725;28;19958;-57
2021/10/27 06:09:01;;;;;;;;;;;;;;;;;;5055761;28;20559;-59
2021/10/27 06:11:28;;;;;;;;;;;;;;;;;;5053093;28;19928;-59
2021/10/27 06:13:55;;;;;;;;;;;;;;;;;;5052761;28;19928;-58
2021/10/27 06:16:22;;;;;;;;;;;;;;;;;;5059801;28;19924;-57
2021/10/27 06:18:49;;;;;;;;;;;;;;;;;;5053127;28;19928;-59
2021/10/27 06:21:17;;;;;;;;;;;;;;;;;;5050387;28;19924;-59
2021/10/27 06:23:44;;;;;;;;;;;;;;;;;;5053034;28;19928;-58
2021/10/27 06:26:11;;;;;;;;;;;;;;;;;;5054358;28;20293;-59
2021/10/27 06:28:43;;;;;;;;;;;;;;;;;;5055943;28;20300;-58
2021/10/27 06:31:13;;;;;;;;;;;;;;;;;;5049016;28;21136;-55
2021/10/27 06:33:51;;;;;;;;;;;;;;;;;;5055321;28;19995;-56
2021/10/27 06:36:23;;;;;;;;;;;;;;;;;;5055671;28;19932;-59
2021/10/27 06:47:12;;;;;;;;;;;;;;;;;;4978765;28;20394;-58
2021/10/27 06:49:39;;;;;;;;;;;;;;;;;;5051324;28;19928;-56
2021/10/27 06:52:06;;;;;;;;;;;;;;;;;;5062992;28;19940;-58
2021/10/27 06:54:33;;;;;;;;;;;;;;;;;;5062727;28;19932;-58
2021/10/27 06:57:00;;;;;;;;;;;;;;;;;;5071073;28;20407;-58
2021/10/27 06:59:31;;;;;;;;;;;;;;;;;;5072663;28;21414;-58
2021/10/27 07:05:00;;;;;;;;;;;;;;;;;;5066736;28;19969;-58
2021/10/27 07:15:38;;;;;;;;;;;;;;;;;;5061596;28;20400;-59
2021/10/27 07:18:05;;;;;;;;;;;;;;;;;;5068976;28;19924;-59
2021/10/27 07:20:32;;;;;;;;;;;;;;;;;;5060430;28;19994;-57
2021/10/27 07:23:00;;;;;;;;;;;;;;;;;;5057703;28;19925;-57
2021/10/27 07:25:27;;;;;;;;;;;;;;;;;;5062229;28;20365;-57
2021/10/27 07:27:54;;;;;;;;;;;;;;;;;;5064746;28;20381;-59
2021/10/27 07:30:22;;;;;;;;;;;;;;;;;;5060692;28;20008;-57
2021/10/27 07:32:53;;;;;;;;;;;;;;;;;;5058754;28;19972;-58
2021/10/27 07:35:26;;;;;;;;;;;;;;;;;;5060635;28;20323;-59
2021/10/27 07:40:41;;;;;;;;;;;;;;;;;;5061968;28;19935;-58
2021/10/27 07:43:09;;;;;;;;;;;;;;;;;;5063168;28;19990;-57
2021/10/27 07:45:36;;;;;;;;;;;;;;;;;;5063112;28;20296;-54
2021/10/27 07:48:03;;;;;;;;;;;;;;;;;;5065677;28;19932;-58
2021/10/27 07:50:30;;;;;;;;;;;;;;;;;;5060127;28;19929;-59
2021/10/27 07:52:57;;;;;;;;;;;;;;;;;;5074853;28;19931;-56
2021/10/27 07:55:25;;;;;;;;;;;;;;;;;;5072634;28;19925;-58
2021/10/27 07:57:52;;;;;;;;;;;;;;;;;;5067937;28;19925;-59
2021/10/27 08:00:19;;;;;;;;;;;;;;;;;;5070254;28;19925;-59
2021/10/27 08:02:46;;;;;;;;;;;;;;;;;;5067349;28;19931;-58
2021/10/27 08:05:13;;;;;;;;;;;;;;;;;;5067589;28;20276;-59
2021/10/27 08:07:40;;;;;;;;;;;;;;;;;;5069670;28;19939;-58
2021/10/27 08:10:07;;;;;;;;;;;;;;;;;;5079337;28;19931;-59
2021/10/27 08:12:34;;;;;;;;;;;;;;;;;;5070932;28;20392;-59
2021/10/27 08:15:01;;;;;;;;;;;;;;;;;;5064533;28;20384;-59
2021/10/27 08:17:28;;;;;;;;;;;;;;;;;;5066644;28;20011;-59
2021/10/27 08:19:55;;;;;;;;;;;;;;;;;;5068532;28;19925;-59
2021/10/27 08:22:22;;;;;;;;;;;;;;;;;;5065579;28;19924;-59
2021/10/27 08:24:51;;;;;;;;;;;;;;;;;;5068198;28;19929;-60
2021/10/27 08:27:20;;;;;;;;;;;;;;;;;;5069793;28;19924;-58
2021/10/27 08:29:48;;;;;;;;;;;;;;;;;;5065221;28;19924;-60
2021/10/27 08:32:19;;;;;;;;;;;;;;;;;;5064935;28;20269;-59
2021/10/27 08:34:48;;;;;;;;;;;;;;;;;;5066529;28;19925;-58
2021/10/27 08:37:15;;;;;;;;;;;;;;;;;;5064170;28;19924;-58
2021/10/27 08:39:42;;;;;;;;;;;;;;;;;;5069288;28;19924;-58
2021/10/27 08:42:09;;;;;;;;;;;;;;;;;;5067484;28;20012;-55
2021/10/27 08:44:36;;;;;;;;;;;;;;;;;;5068767;28;19924;-53
2021/10/27 08:47:03;;;;;;;;;;;;;;;;;;5063522;28;19931;-58
2021/10/27 08:49:30;;;;;;;;;;;;;;;;;;5064233;28;19924;-59
2021/10/27 08:51:58;;;;;;;;;;;;;;;;;;5067109;28;19924;-59
2021/10/27 08:54:25;;;;;;;;;;;;;;;;;;5069219;28;19983;-58
2021/10/27 08:56:55;;;;;;;;;;;;;;;;;;5069523;28;19931;-58
2021/10/27 08:59:26;;;;;;;;;;;;;;;;;;5068122;28;19930;-59
2021/10/27 09:02:12;;;;;;;;;;;;;;;;;;5069516;28;19975;-56
2021/10/27 09:04:46;;;;;;;;;;;;;;;;;;5068752;28;20324;-58
2021/10/27 09:07:21;;;;;;;;;;;;;;;;;;5066147;28;19928;-57
2021/10/27 09:15:40;;;;;;;;;;;;;;;;;;5067227;28;19927;-59
2021/10/27 09:37:36;;;;;;;;;;;;;;;;;;5018373;28;19928;-59
2021/10/27 09:56:40;;;;;;;;;;;;;;;;;;5008137;28;20383;-71
2021/10/27 10:04:38;;;;;;;;;;;;;;;;;;5011748;28;20004;-72
2021/10/27 10:07:06;;;;;;;;;;;;;;;;;;5005296;28;21739;-71
2021/10/27 10:09:37;;;;;;;;;;;;;;;;;;5010895;28;20435;-71
2021/10/27 10:12:04;;;;;;;;;;;;;;;;;;5005549;28;20020;-72
2021/10/27 10:14:32;;;;;;;;;;;;;;;;;;5004510;28;19926;-70
2021/10/27 10:16:59;;;;;;;;;;;;;;;;;;5005566;28;19933;-69
2021/10/27 10:19:26;;;;;;;;;;;;;;;;;;5003745;28;19933;-70
2021/10/27 10:21:53;;;;;;;;;;;;;;;;;;5004139;28;20008;-69
2021/10/27 10:24:23;;;;;;;;;;;;;;;;;;5005092;28;20479;-71
2021/10/27 10:26:50;;;;;;;;;;;;;;;;;;5004887;28;19926;-71
2021/10/27 10:29:17;;;;;;;;;;;;;;;;;;5004197;28;19933;-71
2021/10/27 10:31:44;;;;;;;;;;;;;;;;;;5003131;28;20392;-70
2021/10/27 10:34:11;;;;;;;;;;;;;;;;;;5003726;28;20393;-71
2021/10/27 10:36:41;;;;;;;;;;;;;;;;;;5010258;28;19965;-70
2021/10/27 10:39:36;;;;;;;;;;;;;;;;;;5004133;28;20370;-70
2021/10/27 10:58:54;;;;;;;;;;;;;;;;;;4983551;28;20000;-70
2021/10/27 11:01:29;;;;;;;;;;;;;;;;;;5005379;28;19933;-71
2021/10/27 11:11:35;;;;;;;;;;;;;;;;;;5007338;28;19929;-71
2021/10/27 11:26:22;;;;;;;;;;;;;;;;;;4995004;28;19921;-71
2021/10/27 11:37:27;;;;;;;;;;;;;;;;;;5008593;28;19924;-70
2021/10/27 11:39:55;;;;;;;;;;;;;;;;;;5010379;28;20351;-70
2021/10/27 11:42:38;;;;;;;;;;;;;;;;;;5006492;28;19929;-71
2021/10/27 11:45:07;;;;;;;;;;;;;;;;;;5013826;28;19925;-70
2021/10/27 11:47:34;;;;;;;;;;;;;;;;;;5003054;28;19925;-70
2021/10/27 11:50:01;;;;;;;;;;;;;;;;;;5009671;28;19956;-71
2021/10/27 11:52:28;;;;;;;;;;;;;;;;;;5001689;28;20008;-70
2021/10/27 11:54:56;;;;;;;;;;;;;;;;;;5006158;28;19933;-70
2021/10/27 11:57:23;;;;;;;;;;;;;;;;;;5008404;28;19929;-70
2021/10/27 11:59:51;;;;;;;;;;;;;;;;;;5013233;28;19929;-71
2021/10/27 12:02:19;;;;;;;;;;;;;;;;;;5006804;28;20019;-71
2021/10/27 12:04:46;;;;;;;;;;;;;;;;;;5007798;28;19930;-71
2021/10/27 12:07:18;;;;;;;;;;;;;;;;;;5006438;28;20024;-71
2021/10/27 12:10:00;;;;;;;;;;;;;;;;;;5006237;28;19926;-70
2021/10/27 12:12:34;;;;;;;;;;;;;;;;;;5009759;28;19926;-71
2021/10/27 12:15:21;;;;;;;;;;;;;;;;;;5009247;28;19933;-70
2021/10/27 12:17:59;;;;;;;;;;;;;;;;;;5004291;28;19932;-71
2021/10/27 12:20:26;;;;;;;;;;;;;;;;;;5004681;28;19979;-70
2021/10/27 12:22:53;;;;;;;;;;;;;;;;;;5006578;28;20388;-70
2021/10/27 12:25:21;;;;;;;;;;;;;;;;;;5010449;28;20016;-70
2021/10/27 12:27:48;;;;;;;;;;;;;;;;;;5005489;28;20008;-71
2021/10/27 12:30:15;;;;;;;;;;;;;;;;;;5006839;28;19925;-70
2021/10/27 12:32:42;;;;;;;;;;;;;;;;;;5004992;28;19929;-71
2021/10/27 12:35:09;;;;;;;;;;;;;;;;;;5010457;28;19929;-71
2021/10/27 12:37:38;;;;;;;;;;;;;;;;;;5008964;28;19925;-71
2021/10/27 12:40:08;;;;;;;;;;;;;;;;;;5001199;28;19933;-71
2021/10/27 12:42:35;;;;;;;;;;;;;;;;;;5011421;28;19925;-71
2021/10/27 12:45:04;;;;;;;;;;;;;;;;;;5008945;28;20077;-70
2021/10/27 12:47:33;;;;;;;;;;;;;;;;;;5005440;28;19929;-71
2021/10/27 12:50:00;;;;;;;;;;;;;;;;;;5008402;28;20449;-71
2021/10/27 12:52:27;;;;;;;;;;;;;;;;;;5003602;28;19933;-71
2021/10/27 12:54:54;;;;;;;;;;;;;;;;;;5002215;28;20444;-72
2021/10/27 12:57:21;;;;;;;;;;;;;;;;;;5007978;28;19976;-71
2021/10/27 12:59:48;;;;;;;;;;;;;;;;;;5010177;28;19926;-71
2021/10/27 13:02:21;;;;;;;;;;;;;;;;;;5011353;28;19925;-70
2021/10/27 13:04:54;;;;;;;;;;;;;;;;;;5004710;28;20365;-70
2021/10/27 13:07:26;;;;;;;;;;;;;;;;;;5007330;28;20341;-71
2021/10/27 13:13:02;;;;;;;;;;;;;;;;;;5011553;28;19921;-71
2021/10/27 13:15:51;;;;;;;;;;;;;;;;;;5004626;28;20012;-72
2021/10/27 13:18:39;;;;;;;;;;;;;;;;;;5007264;28;19929;-72
2021/10/27 13:29:45;;;;;;;;;;;;;;;;;;4981364;28;20415;-71
2021/10/27 13:32:16;;;;;;;;;;;;;;;;;;5000223;28;20020;-71
2021/10/27 13:34:43;;;;;;;;;;;;;;;;;;5003455;28;20012;-71
2021/10/27 13:37:10;;;;;;;;;;;;;;;;;;5008848;28;19930;-72
2021/10/27 13:39:38;;;;;;;;;;;;;;;;;;5002405;28;20538;-71
2021/10/27 13:42:10;;;;;;;;;;;;;;;;;;5005761;28;19932;-71
2021/10/27 13:44:44;;;;;;;;;;;;;;;;;;5002432;28;19999;-71
2021/10/27 13:47:30;;;;;;;;;;;;;;;;;;5003835;28;20023;-72
2021/10/27 13:58:29;;;;;;;;;;;;;;;;;;5004930;28;20173;-71
2021/10/27 14:06:31;;;;;;;;;;;;;;;;;;5008387;28;19997;-72
2021/10/27 14:09:00;;;;;;;;;;;;;;;;;;5007085;28;19929;-72
2021/10/27 14:11:32;;;;;;;;;;;;;;;;;;5005204;28;19932;-72
2021/10/27 14:14:08;;;;;;;;;;;;;;;;;;5004305;28;20296;-73
2021/10/27 14:16:56;;;;;;;;;;;;;;;;;;5005525;28;20314;-72
2021/10/27 14:19:36;;;;;;;;;;;;;;;;;;5006233;28;19972;-70
2021/10/27 15:19:48;;;;;;;;;;;;;;;;;;5013318;28;19983;-72
2021/10/27 15:22:20;;;;;;;;;;;;;;;;;;5010198;28;19933;-71
2021/10/27 15:25:17;;;;;;;;;;;;;;;;;;5007236;28;19925;-74
2021/10/27 15:28:03;;;;;;;;;;;;;;;;;;5007977;28;20304;-73
2021/10/27 15:30:42;;;;;;;;;;;;;;;;;;5010296;28;19933;-73
2021/10/27 15:33:21;;;;;;;;;;;;;;;;;;5006770;28;19933;-72
2021/10/27 15:41:33;;;;;;;;;;;;;;;;;;5004203;28;19938;-73
2021/10/27 15:52:23;;;;;;;;;;;;;;;;;;5009834;28;19964;-71
2021/10/27 15:54:50;;;;;;;;;;;;;;;;;;5008073;28;20301;-72
2021/10/27 15:57:17;;;;;;;;;;;;;;;;;;5017696;28;19968;-72
2021/10/27 15:59:44;;;;;;;;;;;;;;;;;;5012874;28;19925;-72
2021/10/27 16:02:12;;;;;;;;;;;;;;;;;;5016271;28;20053;-70
2021/10/27 16:04:39;;;;;;;;;;;;;;;;;;5008726;28;19937;-70
2021/10/27 16:07:07;;;;;;;;;;;;;;;;;;5008248;28;19985;-72
2021/10/27 16:09:39;;;;;;;;;;;;;;;;;;5009194;28;19968;-72
2021/10/27 16:12:06;;;;;;;;;;;;;;;;;;5011082;28;19932;-71
2021/10/27 16:14:33;;;;;;;;;;;;;;;;;;5005481;28;20256;-72
2021/10/27 16:17:00;;;;;;;;;;;;;;;;;;5009114;28;20092;-72
2021/10/27 16:19:27;;;;;;;;;;;;;;;;;;5005560;28;20334;-73
2021/10/27 16:21:54;;;;;;;;;;;;;;;;;;5006107;28;20012;-72
2021/10/27 16:24:21;;;;;;;;;;;;;;;;;;5006793;28;20390;-72
2021/10/27 16:26:48;;;;;;;;;;;;;;;;;;5004546;28;19961;-73
2021/10/27 16:29:15;;;;;;;;;;;;;;;;;;5014669;28;19926;-72
2021/10/27 16:31:42;;;;;;;;;;;;;;;;;;5015771;28;20012;-72
2021/10/27 16:34:10;;;;;;;;;;;;;;;;;;5007884;28;19926;-72
2021/10/27 16:36:37;;;;;;;;;;;;;;;;;;5006442;28;20016;-71
2021/10/27 16:39:05;;;;;;;;;;;;;;;;;;5008156;28;20408;-71
2021/10/27 16:41:32;;;;;;;;;;;;;;;;;;5009213;28;20507;-71
2021/10/27 16:43:59;;;;;;;;;;;;;;;;;;5006842;28;19929;-75
2021/10/27 16:46:25;;;;;;;;;;;;;;;;;;5007481;28;20008;-73
2021/10/27 16:48:53;;;;;;;;;;;;;;;;;;5010723;28;19926;-72
2021/10/27 16:51:20;;;;;;;;;;;;;;;;;;5006837;28;20008;-72
2021/10/27 16:53:47;;;;;;;;;;;;;;;;;;5007644;28;19977;-70
2021/10/27 16:56:14;;;;;;;;;;;;;;;;;;5011116;28;19943;-70
2021/10/27 16:58:41;;;;;;;;;;;;;;;;;;5007644;28;19934;-72
2021/10/27 17:01:08;;;;;;;;;;;;;;;;;;5006308;28;20020;-72
2021/10/27 17:03:36;;;;;;;;;;;;;;;;;;5008818;28;19972;-73
2021/10/27 17:06:04;;;;;;;;;;;;;;;;;;5006850;28;20381;-71
2021/10/27 17:08:31;;;;;;;;;;;;;;;;;;5008569;28;20353;-72
2021/10/27 17:11:00;;;;;;;;;;;;;;;;;;5007347;28;19925;-71
2021/10/27 17:13:27;;;;;;;;;;;;;;;;;;5009290;28;20440;-70
2021/10/27 17:15:54;;;;;;;;;;;;;;;;;;5008054;28;19979;-71
2021/10/27 17:18:22;;;;;;;;;;;;;;;;;;5010326;28;19957;-72
2021/10/27 17:20:49;;;;;;;;;;;;;;;;;;5003912;28;19929;-73
2021/10/27 17:23:19;;;;;;;;;;;;;;;;;;5007552;28;19976;-70
2021/10/27 17:25:46;;;;;;;;;;;;;;;;;;5003722;28;20308;-72
2021/10/27 17:28:13;;;;;;;;;;;;;;;;;;5008885;28;20364;-72
2021/10/27 17:30:41;;;;;;;;;;;;;;;;;;5004097;28;19925;-70
2021/10/27 17:33:11;;;;;;;;;;;;;;;;;;5011717;28;19988;-72
2021/10/27 17:35:38;;;;;;;;;;;;;;;;;;5008461;28;20477;-72
2021/10/27 17:38:05;;;;;;;;;;;;;;;;;;5005765;28;19932;-75
2021/10/27 17:40:35;;;;;;;;;;;;;;;;;;5005450;28;19993;-72
2021/10/27 17:43:03;;;;;;;;;;;;;;;;;;5006077;28;19926;-72
2021/10/27 17:45:36;;;;;;;;;;;;;;;;;;5003516;28;19926;-71
2021/10/27 17:48:06;;;;;;;;;;;;;;;;;;5006199;28;19938;-71
2021/10/27 17:50:40;;;;;;;;;;;;;;;;;;5016417;28;19936;-70
2021/10/27 17:58:38;;;;;;;;;;;;;;;;;;5008205;28;20294;-71
2021/10/27 18:01:05;;;;;;;;;;;;;;;;;;5010410;28;19925;-71
2021/10/27 18:03:32;;;;;;;;;;;;;;;;;;5006337;28;19929;-72
2021/10/27 18:05:59;;;;;;;;;;;;;;;;;;5006324;28;19926;-73
2021/10/27 18:08:26;;;;;;;;;;;;;;;;;;5005519;28;19930;-72
2021/10/27 18:10:55;;;;;;;;;;;;;;;;;;5007816;28;19926;-69
2021/10/27 18:13:24;;;;;;;;;;;;;;;;;;5006899;28;19936;-70
2021/10/27 18:15:54;;;;;;;;;;;;;;;;;;5009132;28;19948;-70
2021/10/27 18:18:25;;;;;;;;;;;;;;;;;;5006635;28;19929;-71
2021/10/27 18:20:53;;;;;;;;;;;;;;;;;;5004836;28;19971;-71
2021/10/27 18:23:31;;;;;;;;;;;;;;;;;;5004386;28;19996;-71
2021/10/27 18:26:26;;;;;;;;;;;;;;;;;;5007507;28;19926;-70
2021/10/27 18:37:24;;;;;;;;;;;;;;;;;;5003314;28;19944;-72
2021/10/27 18:40:01;;;;;;;;;;;;;;;;;;5003598;28;19933;-72
2021/10/27 18:42:33;;;;;;;;;;;;;;;;;;5005684;28;19934;-71
2021/10/27 18:45:00;;;;;;;;;;;;;;;;;;5004369;28;19925;-71
2021/10/27 18:47:28;;;;;;;;;;;;;;;;;;5004061;28;19925;-71
2021/10/27 18:49:55;;;;;;;;;;;;;;;;;;5004446;28;20480;-69
2021/10/27 18:52:28;;;;;;;;;;;;;;;;;;5001460;28;19937;-70
2021/10/27 18:54:58;;;;;;;;;;;;;;;;;;5015600;28;19949;-71
2021/10/27 18:57:34;;;;;;;;;;;;;;;;;;5017948;28;19926;-70
2021/10/27 19:00:10;;;;;;;;;;;;;;;;;;5008350;28;20020;-70
2021/10/27 19:02:44;;;;;;;;;;;;;;;;;;5004485;28;19933;-70
2021/10/27 19:10:54;;;;;;;;;;;;;;;;;;5009193;28;20008;-70
2021/10/27 19:13:36;;;;;;;;;;;;;;;;;;5003525;28;19930;-68
2021/10/27 19:16:03;;;;;;;;;;;;;;;;;;5007580;28;19925;-69
2021/10/27 19:18:30;;;;;;;;;;;;;;;;;;5007982;28;19969;-69
2021/10/27 19:20:57;;;;;;;;;;;;;;;;;;5007689;28;19984;-69
2021/10/27 19:23:24;;;;;;;;;;;;;;;;;;5003653;28;20277;-70
2021/10/27 19:25:59;;;;;;;;;;;;;;;;;;5005371;28;19952;-69
2021/10/27 19:28:37;;;;;;;;;;;;;;;;;;5005206;28;20334;-69
2021/10/27 20:07:12;;;;;;;;;;;;;;;;;;5011511;28;19959;-72
2021/10/27 20:10:02;;;;;;;;;;;;;;;;;;5011078;28;19925;-68
2021/10/27 20:15:46;;;;;;;;;;;;;;;;;;5010110;28;20535;-70
2021/10/27 20:29:50;;;;;;;;;;;;;;;;;;4992270;28;19925;-71
2021/10/27 20:48:47;;;;;;;;;;;;;;;;;;4961918;28;20425;-70
2021/10/27 20:51:25;;;;;;;;;;;;;;;;;;5000833;28;19929;-68
2021/10/27 20:53:52;;;;;;;;;;;;;;;;;;5000956;28;21347;-70
2021/10/27 20:56:21;;;;;;;;;;;;;;;;;;4997356;28;19934;-71
2021/10/27 20:58:59;;;;;;;;;;;;;;;;;;4999987;28;19926;-70
2021/10/27 21:01:29;;;;;;;;;;;;;;;;;;5000192;28;19978;-70
2021/10/27 21:12:31;;;;;;;;;;;;;;;;;;4996578;28;19992;-70
2021/10/27 21:14:58;;;;;;;;;;;;;;;;;;5000198;28;19940;-71
2021/10/27 21:17:27;;;;;;;;;;;;;;;;;;4996955;28;19925;-70
2021/10/27 21:19:54;;;;;;;;;;;;;;;;;;4996356;28;19926;-71
2021/10/27 21:22:21;;;;;;;;;;;;;;;;;;5007582;28;20024;-71
2021/10/27 21:24:49;;;;;;;;;;;;;;;;;;4996391;28;19957;-72
2021/10/27 21:27:24;;;;;;;;;;;;;;;;;;4999133;28;19932;-70
2021/10/27 21:29:57;;;;;;;;;;;;;;;;;;4996055;28;20433;-70
2021/10/27 21:43:45;;;;;;;;;;;;;;;;;;5001154;28;19940;-72
2021/10/27 21:46:12;;;;;;;;;;;;;;;;;;5009557;28;20316;-71
2021/10/27 21:48:39;;;;;;;;;;;;;;;;;;5007337;28;20338;-72
2021/10/27 21:51:06;;;;;;;;;;;;;;;;;;5006325;28;19940;-71
2021/10/27 21:53:33;;;;;;;;;;;;;;;;;;5008508;28;19936;-73
2021/10/27 21:56:01;;;;;;;;;;;;;;;;;;5006929;28;20336;-72
2021/10/27 21:58:28;;;;;;;;;;;;;;;;;;5005590;28;19985;-71
2021/10/27 22:00:59;;;;;;;;;;;;;;;;;;5007232;28;19972;-72
2021/10/27 22:03:26;;;;;;;;;;;;;;;;;;5002543;28;19933;-74
2021/10/27 22:05:55;;;;;;;;;;;;;;;;;;4999865;28;19925;-73
2021/10/27 22:08:22;;;;;;;;;;;;;;;;;;5001101;28;19942;-71
2021/10/27 22:10:49;;;;;;;;;;;;;;;;;;5009996;28;19929;-69
2021/10/27 22:13:16;;;;;;;;;;;;;;;;;;5007940;28;19925;-72
2021/10/27 22:15:43;;;;;;;;;;;;;;;;;;5002439;28;20394;-71
2021/10/27 22:18:10;;;;;;;;;;;;;;;;;;5006627;28;20370;-72